createdAt,value
2018-10-17T00:00:02.425Z,9.40
2018-10-17T00:02:31.084Z,9.40
2018-10-17T00:04:59.637Z,9.30
2018-10-17T00:07:28.087Z,9.20
2018-10-17T00:09:56.623Z,9.30
2018-10-17T00:12:25.153Z,9.30
2018-10-17T00:14:53.711Z,9.10
2018-10-17T00:17:22.220Z,8.80
2018-10-17T00:19:50.716Z,8.60
2018-10-17T00:22:19.184Z,8.50
2018-10-17T00:24:47.700Z,8.60
2018-10-17T00:27:18.234Z,8.70
2018-10-17T00:29:46.757Z,8.70
2018-10-17T00:32:15.307Z,8.80
2018-10-17T00:34:43.818Z,9.00
2018-10-17T00:37:12.481Z,9.00
2018-10-17T00:39:40.883Z,9.00
2018-10-17T00:42:09.384Z,9.00
2018-10-17T00:44:37.907Z,9.00
2018-10-17T00:47:06.647Z,8.80
2018-10-17T00:49:35.078Z,8.80
2018-10-17T00:52:03.578Z,8.80
2018-10-17T00:54:32.075Z,8.80
2018-10-17T00:57:01.611Z,8.90
2018-10-17T00:59:30.136Z,8.90
2018-10-17T01:01:58.632Z,8.90
2018-10-17T01:04:27.120Z,8.70
2018-10-17T01:06:55.648Z,8.60
2018-10-17T01:09:24.156Z,8.60
2018-10-17T01:11:52.610Z,8.50
2018-10-17T01:14:22.203Z,8.50
2018-10-17T01:16:50.792Z,8.40
2018-10-17T01:19:19.303Z,8.50
2018-10-17T01:21:47.892Z,8.50
2018-10-17T01:24:16.432Z,8.60
2018-10-17T01:26:44.900Z,8.50
2018-10-17T01:29:13.500Z,8.60
2018-10-17T01:31:41.988Z,8.50
2018-10-17T01:34:10.499Z,8.60
2018-10-17T01:36:38.988Z,8.60
2018-10-17T01:39:09.114Z,8.60
2018-10-17T01:41:37.718Z,8.20
2018-10-17T01:44:06.767Z,8.30
2018-10-17T01:46:35.406Z,8.40
2018-10-17T01:49:03.982Z,8.60
2018-10-17T01:51:32.523Z,8.60
2018-10-17T01:54:02.107Z,8.70
2018-10-17T01:56:30.639Z,8.60
2018-10-17T01:58:59.131Z,8.60
2018-10-17T02:01:27.631Z,8.30
2018-10-17T02:03:56.092Z,7.90
2018-10-17T02:06:25.464Z,7.70
2018-10-17T02:08:55.045Z,7.60
2018-10-17T02:11:23.570Z,7.30
2018-10-17T02:13:52.079Z,7.70
2018-10-17T02:16:20.585Z,7.70
2018-10-17T02:18:49.151Z,7.90
2018-10-17T02:21:17.673Z,8.20
2018-10-17T02:23:46.153Z,8.20
2018-10-17T02:26:14.659Z,8.20
2018-10-17T02:28:43.162Z,8.10
2018-10-17T02:31:11.706Z,8.10
2018-10-17T02:33:46.035Z,8.10
2018-10-17T02:36:14.556Z,8.20
2018-10-17T02:38:43.068Z,8.40
2018-10-17T02:41:12.646Z,8.30
2018-10-17T02:43:41.113Z,8.30
2018-10-17T02:46:09.637Z,8.30
2018-10-17T02:48:44.045Z,8.20
2018-10-17T02:51:12.549Z,8.20
2018-10-17T02:53:41.181Z,8.10
2018-10-17T02:56:09.709Z,7.90
2018-10-17T02:58:38.235Z,7.50
2018-10-17T03:01:06.846Z,7.60
2018-10-17T03:03:35.297Z,7.70
2018-10-17T03:06:03.842Z,7.90
2018-10-17T03:08:32.403Z,8.00
2018-10-17T03:11:00.936Z,7.80
2018-10-17T03:13:29.511Z,7.80
2018-10-17T03:15:58.028Z,7.60
2018-10-17T03:18:26.621Z,7.70
2018-10-17T03:20:55.202Z,7.70
2018-10-17T03:23:23.745Z,7.90
2018-10-17T03:25:52.245Z,7.90
2018-10-17T03:28:20.766Z,8.00
2018-10-17T03:30:49.511Z,8.00
2018-10-17T03:33:18.093Z,8.00
2018-10-17T03:35:46.642Z,8.00
2018-10-17T03:38:15.225Z,7.90
2018-10-17T03:40:43.751Z,8.00
2018-10-17T03:43:12.410Z,8.00
2018-10-17T03:45:40.898Z,8.10
2018-10-17T03:48:09.520Z,8.00
2018-10-17T03:50:38.045Z,8.20
2018-10-17T03:53:06.627Z,8.20
2018-10-17T03:55:35.099Z,8.10
2018-10-17T03:58:03.586Z,8.10
2018-10-17T04:00:32.104Z,7.90
2018-10-17T04:03:00.657Z,8.00
2018-10-17T04:05:41.588Z,7.90
2018-10-17T04:08:10.141Z,7.70
2018-10-17T04:10:38.685Z,7.60
2018-10-17T04:13:07.253Z,7.60
2018-10-17T04:15:35.841Z,7.50
2018-10-17T04:18:04.389Z,7.50
2018-10-17T04:20:32.954Z,7.20
2018-10-17T04:23:01.537Z,6.80
2018-10-17T04:25:30.094Z,6.70
2018-10-17T04:27:58.629Z,7.00
2018-10-17T04:30:29.260Z,7.50
2018-10-17T04:32:57.766Z,7.60
2018-10-17T04:35:26.306Z,7.80
2018-10-17T04:37:54.895Z,7.90
2018-10-17T04:40:23.447Z,7.70
2018-10-17T04:42:52.020Z,7.70
2018-10-17T04:45:20.545Z,7.90
2018-10-17T04:47:49.073Z,8.00
2018-10-17T04:50:17.625Z,8.00
2018-10-17T04:52:46.113Z,7.80
2018-10-17T04:55:14.771Z,7.70
2018-10-17T04:57:43.219Z,7.80
2018-10-17T05:00:12.806Z,7.90
2018-10-17T05:02:42.550Z,8.00
2018-10-17T05:05:11.323Z,8.00
2018-10-17T05:07:39.835Z,8.00
2018-10-17T05:10:09.529Z,8.00
2018-10-17T05:12:38.041Z,8.10
2018-10-17T05:15:06.771Z,7.90
2018-10-17T05:17:35.299Z,7.70
2018-10-17T05:20:04.074Z,7.70
2018-10-17T05:22:32.594Z,7.70
2018-10-17T05:25:01.161Z,7.50
2018-10-17T05:27:29.678Z,7.20
2018-10-17T05:29:58.257Z,6.90
2018-10-17T05:32:26.808Z,7.10
2018-10-17T05:34:55.361Z,6.90
2018-10-17T05:37:23.879Z,7.20
2018-10-17T05:39:52.453Z,7.50
2018-10-17T05:42:20.990Z,7.50
2018-10-17T05:44:49.523Z,7.60
2018-10-17T05:47:18.056Z,7.60
2018-10-17T05:49:46.561Z,7.20
2018-10-17T05:52:15.087Z,7.30
2018-10-17T05:54:47.064Z,7.40
2018-10-17T05:57:15.632Z,7.50
2018-10-17T05:59:44.146Z,7.40
2018-10-17T06:02:16.148Z,6.90
2018-10-17T06:04:44.633Z,7.00
2018-10-17T06:07:13.276Z,7.30
2018-10-17T06:09:41.812Z,7.10
2018-10-17T06:12:10.349Z,6.80
2018-10-17T06:14:38.937Z,6.70
2018-10-17T06:17:07.492Z,6.60
2018-10-17T06:19:36.114Z,6.70
2018-10-17T06:22:04.683Z,6.90
2018-10-17T06:24:33.191Z,6.90
2018-10-17T06:27:05.282Z,7.10
2018-10-17T06:29:33.794Z,7.10
2018-10-17T06:32:02.341Z,7.20
2018-10-17T06:34:30.906Z,7.30
2018-10-17T06:36:59.435Z,7.40
2018-10-17T06:39:27.940Z,7.40
2018-10-17T06:41:57.574Z,7.20
2018-10-17T06:44:26.166Z,7.00
2018-10-17T06:46:54.755Z,7.00
2018-10-17T06:49:23.210Z,7.20
2018-10-17T06:51:51.708Z,7.20
2018-10-17T06:54:20.220Z,7.20
2018-10-17T06:56:48.723Z,7.40
2018-10-17T06:59:17.398Z,7.60
2018-10-17T07:01:45.903Z,7.60
2018-10-17T07:04:14.439Z,7.90
2018-10-17T07:06:44.010Z,8.00
2018-10-17T07:09:12.597Z,8.10
2018-10-17T07:11:41.101Z,8.10
2018-10-17T07:14:09.612Z,8.10
2018-10-17T07:16:40.172Z,8.10
2018-10-17T07:19:08.784Z,8.20
2018-10-17T07:21:37.325Z,8.10
2018-10-17T07:24:05.914Z,8.50
2018-10-17T07:26:34.486Z,8.30
2018-10-17T07:29:03.068Z,8.30
2018-10-17T07:31:31.528Z,8.50
2018-10-17T07:34:00.098Z,8.50
2018-10-17T07:36:28.657Z,8.50
2018-10-17T07:38:57.229Z,8.60
2018-10-17T07:41:37.810Z,8.70
2018-10-17T07:44:06.566Z,8.80
2018-10-17T07:46:35.223Z,8.90
2018-10-17T07:49:03.781Z,8.80
2018-10-17T07:51:39.902Z,8.80
2018-10-17T07:54:08.505Z,9.00
2018-10-17T07:56:37.007Z,9.00
2018-10-17T07:59:05.817Z,9.10
2018-10-17T08:01:34.324Z,9.10
2018-10-17T08:04:10.025Z,9.30
2018-10-17T08:06:55.077Z,9.70
2018-10-17T08:09:25.739Z,9.80
2018-10-17T08:11:54.381Z,10.00
2018-10-17T08:14:22.862Z,10.10
2018-10-17T08:17:05.469Z,10.10
2018-10-17T08:19:34.785Z,10.10
2018-10-17T08:22:03.314Z,10.40
2018-10-17T08:24:31.832Z,10.50
2018-10-17T08:27:00.333Z,10.70
2018-10-17T08:29:28.911Z,10.90
2018-10-17T08:31:57.413Z,11.10
2018-10-17T08:34:25.957Z,11.60
2018-10-17T08:36:54.650Z,11.90
2018-10-17T08:39:23.038Z,12.10
2018-10-17T08:41:51.557Z,12.50
2018-10-17T08:44:20.142Z,12.20
2018-10-17T08:46:48.691Z,12.40
2018-10-17T08:49:17.203Z,12.80
2018-10-17T08:51:45.749Z,13.20
2018-10-17T08:54:14.328Z,13.50
2018-10-17T08:56:42.866Z,13.70
2018-10-17T08:59:11.458Z,14.00
2018-10-17T09:01:40.087Z,14.00
2018-10-17T09:04:08.590Z,14.00
2018-10-17T09:06:37.146Z,14.20
2018-10-17T09:09:09.305Z,14.40
2018-10-17T09:11:38.193Z,14.60
2018-10-17T09:14:07.906Z,14.80
2018-10-17T09:16:36.462Z,15.10
2018-10-17T09:19:05.138Z,15.40
2018-10-17T09:21:34.130Z,15.60
2018-10-17T09:24:02.345Z,15.70
2018-10-17T09:26:30.821Z,16.00
2018-10-17T09:28:59.342Z,16.00
2018-10-17T09:31:28.045Z,16.20
2018-10-17T09:33:56.744Z,15.90
2018-10-17T09:36:25.529Z,16.10
2018-10-17T09:38:54.082Z,16.20
2018-10-17T09:41:22.689Z,16.60
2018-10-17T09:43:51.210Z,16.70
2018-10-17T09:46:19.743Z,16.80
2018-10-17T09:49:10.160Z,16.40
2018-10-17T09:51:40.945Z,17.00
2018-10-17T09:54:09.575Z,16.70
2018-10-17T09:56:38.137Z,17.20
2018-10-17T09:59:06.647Z,17.50
2018-10-17T10:01:40.402Z,17.40
2018-10-17T10:04:08.941Z,17.20
2018-10-17T10:06:37.480Z,18.00
2018-10-17T10:09:08.005Z,18.50
2018-10-17T10:11:36.580Z,18.30
2018-10-17T10:14:05.174Z,18.60
2018-10-17T10:16:33.710Z,18.60
2018-10-17T10:19:02.289Z,19.00
2018-10-17T10:21:30.973Z,19.30
2018-10-17T10:24:00.076Z,19.40
2018-10-17T10:26:34.825Z,19.60
2018-10-17T10:29:03.374Z,19.30
2018-10-17T10:31:31.887Z,19.50
2018-10-17T10:34:00.425Z,19.30
2018-10-17T10:36:28.956Z,19.40
2018-10-17T10:38:57.494Z,19.10
2018-10-17T10:41:26.014Z,18.60
2018-10-17T10:43:54.557Z,18.80
2018-10-17T10:46:23.124Z,19.60
2018-10-17T10:48:51.663Z,20.10
2018-10-17T10:51:20.275Z,19.90
2018-10-17T10:53:48.709Z,19.40
2018-10-17T10:56:17.294Z,19.40
2018-10-17T10:58:51.457Z,19.40
2018-10-17T11:01:20.006Z,19.00
2018-10-17T11:03:48.578Z,19.80
2018-10-17T11:06:17.118Z,19.90
2018-10-17T11:08:45.702Z,19.40
2018-10-17T11:11:14.289Z,20.00
2018-10-17T11:13:48.219Z,20.50
2018-10-17T11:16:16.736Z,20.10
2018-10-17T11:18:45.293Z,20.60
2018-10-17T11:21:13.874Z,21.00
2018-10-17T11:23:42.370Z,21.40
2018-10-17T11:26:10.900Z,21.20
2018-10-17T11:28:39.463Z,21.40
2018-10-17T11:31:07.995Z,21.60
2018-10-17T11:33:36.549Z,22.10
2018-10-17T11:36:05.105Z,21.90
2018-10-17T11:38:33.652Z,21.80
2018-10-17T11:41:02.250Z,21.70
2018-10-17T11:43:30.815Z,22.00
2018-10-17T11:45:59.367Z,22.20
2018-10-17T11:48:27.869Z,22.50
2018-10-17T11:50:56.467Z,22.50
2018-10-17T11:53:24.999Z,22.70
2018-10-17T11:55:53.556Z,22.70
2018-10-17T11:58:22.085Z,22.70
2018-10-17T12:00:50.659Z,22.80
2018-10-17T12:03:19.272Z,22.40
2018-10-17T12:05:47.913Z,22.60
2018-10-17T12:08:23.075Z,22.60
2018-10-17T12:10:51.661Z,22.00
2018-10-17T12:13:20.200Z,22.40
2018-10-17T12:15:48.724Z,22.10
2018-10-17T12:18:17.291Z,22.20
2018-10-17T12:20:45.893Z,22.60
2018-10-17T12:23:14.395Z,22.80
2018-10-17T12:25:42.982Z,22.90
2018-10-17T12:28:11.692Z,22.10
2018-10-17T12:30:40.112Z,22.60
2018-10-17T12:33:08.634Z,22.60
2018-10-17T12:35:37.218Z,23.10
2018-10-17T12:38:09.426Z,23.30
2018-10-17T12:40:38.091Z,22.00
2018-10-17T12:43:06.633Z,22.40
2018-10-17T12:45:35.185Z,22.70
2018-10-17T12:48:03.781Z,22.90
2018-10-17T12:50:32.351Z,23.10
2018-10-17T12:53:01.097Z,22.70
2018-10-17T12:55:29.457Z,22.80
2018-10-17T12:57:57.974Z,23.00
2018-10-17T13:00:26.519Z,23.00
2018-10-17T13:02:55.065Z,23.00
2018-10-17T13:05:23.609Z,22.90
2018-10-17T13:07:52.138Z,23.30
2018-10-17T13:10:20.660Z,23.00
2018-10-17T13:12:49.175Z,22.70
2018-10-17T13:15:17.702Z,22.70
2018-10-17T13:17:46.565Z,22.20
2018-10-17T13:20:15.158Z,22.70
2018-10-17T13:22:43.735Z,22.70
2018-10-17T13:25:12.259Z,22.50
2018-10-17T13:27:41.825Z,22.50
2018-10-17T13:30:10.380Z,22.30
2018-10-17T13:32:38.930Z,22.80
2018-10-17T13:35:07.597Z,22.40
2018-10-17T13:37:36.105Z,22.00
2018-10-17T13:40:04.741Z,22.50
2018-10-17T13:42:33.352Z,22.60
2018-10-17T13:45:14.077Z,22.40
2018-10-17T13:47:42.629Z,22.50
2018-10-17T13:50:11.229Z,22.50
2018-10-17T13:52:39.763Z,22.20
2018-10-17T13:55:08.399Z,22.00
2018-10-17T13:57:37.019Z,22.40
2018-10-17T14:00:06.777Z,22.50
2018-10-17T14:02:35.305Z,22.50
2018-10-17T14:05:03.918Z,22.60
2018-10-17T14:07:32.462Z,22.90
2018-10-17T14:10:00.990Z,22.90
2018-10-17T14:12:29.530Z,22.70
2018-10-17T14:14:59.178Z,22.30
2018-10-17T14:17:27.694Z,22.40
2018-10-17T14:19:56.256Z,22.20
2018-10-17T14:25:21.995Z,22.70
2018-10-17T14:27:50.538Z,22.70
2018-10-17T14:30:19.112Z,22.20
2018-10-17T14:32:47.663Z,22.10
2018-10-17T14:35:32.715Z,22.50
2018-10-17T14:38:01.501Z,22.70
2018-10-17T14:40:29.954Z,22.50
2018-10-17T14:43:10.446Z,22.60
2018-10-17T14:45:39.017Z,22.70
2018-10-17T14:48:08.319Z,22.30
2018-10-17T14:50:36.950Z,22.20
2018-10-17T14:53:23.827Z,22.30
2018-10-17T14:55:55.404Z,22.20
2018-10-17T14:58:23.928Z,22.30
2018-10-17T15:00:52.548Z,22.40
2018-10-17T15:03:27.342Z,22.40
2018-10-17T15:05:55.987Z,22.40
2018-10-17T15:08:24.471Z,22.20
2018-10-17T15:10:54.408Z,22.30
2018-10-17T15:13:22.665Z,22.20
2018-10-17T15:15:51.218Z,22.20
2018-10-17T15:18:19.935Z,22.00
2018-10-17T15:20:48.465Z,21.80
2018-10-17T15:23:17.313Z,21.80
2018-10-17T15:25:45.825Z,21.60
2018-10-17T15:28:14.371Z,21.30
2018-10-17T15:30:42.922Z,21.20
2018-10-17T15:33:11.499Z,21.30
2018-10-17T15:35:40.360Z,21.20
2018-10-17T15:38:08.884Z,20.90
2018-10-17T15:40:37.432Z,20.70
2018-10-17T15:43:06.060Z,20.80
2018-10-17T15:45:34.597Z,20.70
2018-10-17T15:48:03.090Z,20.50
2018-10-17T15:50:31.646Z,20.30
2018-10-17T15:53:00.171Z,20.30
2018-10-17T15:55:28.689Z,20.10
2018-10-17T15:57:57.211Z,20.30
2018-10-17T16:00:25.737Z,20.10
2018-10-17T16:02:54.224Z,19.90
2018-10-17T16:05:22.774Z,19.40
2018-10-17T16:07:51.359Z,19.30
2018-10-17T16:10:20.063Z,18.80
2018-10-17T16:12:48.634Z,19.10
2018-10-17T16:15:17.149Z,19.00
2018-10-17T16:17:45.665Z,18.90
2018-10-17T16:20:14.234Z,18.70
2018-10-17T16:22:42.885Z,18.40
2018-10-17T16:25:11.384Z,18.60
2018-10-17T16:27:39.971Z,18.40
2018-10-17T16:30:10.302Z,18.30
2018-10-17T16:32:42.292Z,18.20
2018-10-17T16:35:10.888Z,17.90
2018-10-17T16:37:39.716Z,17.80
2018-10-17T16:40:09.118Z,17.80
2018-10-17T16:42:37.659Z,17.50
2018-10-17T16:45:07.413Z,17.30
2018-10-17T16:47:36.000Z,17.20
2018-10-17T16:50:05.049Z,16.90
2018-10-17T16:52:33.624Z,17.00
2018-10-17T16:55:02.232Z,16.90
2018-10-17T16:57:30.723Z,16.80
2018-10-17T16:59:59.301Z,16.50
2018-10-17T17:02:27.830Z,16.50
2018-10-17T17:04:56.355Z,16.50
2018-10-17T17:07:24.989Z,16.70
2018-10-17T17:09:53.514Z,16.50
2018-10-17T17:12:22.028Z,16.40
2018-10-17T17:14:50.688Z,16.10
2018-10-17T17:17:20.298Z,16.00
2018-10-17T17:19:48.808Z,16.10
2018-10-17T17:22:17.321Z,15.80
2018-10-17T17:24:46.477Z,15.70
2018-10-17T17:27:18.276Z,15.50
2018-10-17T17:29:46.843Z,15.50
2018-10-17T17:32:15.301Z,15.60
2018-10-17T17:34:43.842Z,15.50
2018-10-17T17:37:12.425Z,15.40
2018-10-17T17:39:40.981Z,15.40
2018-10-17T17:42:09.584Z,15.40
2018-10-17T17:44:38.185Z,15.20
2018-10-17T17:47:07.234Z,15.10
2018-10-17T17:49:35.811Z,14.90
2018-10-17T17:52:04.536Z,15.00
2018-10-17T17:54:33.090Z,14.70
2018-10-17T17:57:01.657Z,14.60
2018-10-17T17:59:30.242Z,14.60
2018-10-17T18:01:58.805Z,14.50
2018-10-17T18:04:27.422Z,14.60
2018-10-17T18:06:59.165Z,14.30
2018-10-17T18:09:27.735Z,13.90
2018-10-17T18:11:56.257Z,14.00
2018-10-17T18:14:24.894Z,14.00
2018-10-17T18:16:53.346Z,14.00
2018-10-17T18:19:22.002Z,13.90
2018-10-17T18:21:50.805Z,13.50
2018-10-17T18:24:19.583Z,13.50
2018-10-17T18:26:48.407Z,13.20
2018-10-17T18:29:17.249Z,13.10
2018-10-17T18:31:45.963Z,13.40
2018-10-17T18:34:14.767Z,13.10
2018-10-17T18:36:44.571Z,13.30
2018-10-17T18:39:13.362Z,13.20
2018-10-17T18:41:42.037Z,13.10
2018-10-17T18:44:10.577Z,13.00
2018-10-17T18:46:39.107Z,13.10
2018-10-17T18:49:07.654Z,13.10
2018-10-17T18:51:36.213Z,13.10
2018-10-17T18:54:05.212Z,13.10
2018-10-17T18:56:33.784Z,13.10
2018-10-17T18:59:02.385Z,12.90
2018-10-17T19:01:31.015Z,12.70
2018-10-17T19:03:59.582Z,12.60
2018-10-17T19:06:28.139Z,12.50
2018-10-17T19:09:02.341Z,12.50
2018-10-17T19:11:30.868Z,12.30
2018-10-17T19:13:59.482Z,12.20
2018-10-17T19:16:28.243Z,12.40
2018-10-17T19:19:10.490Z,12.40
2018-10-17T19:21:40.175Z,12.20
2018-10-17T19:24:15.242Z,12.00
2018-10-17T19:26:45.895Z,12.30
2018-10-17T19:29:15.480Z,12.30
2018-10-17T19:31:44.042Z,12.30
2018-10-17T19:34:12.574Z,12.30
2018-10-17T19:36:41.145Z,12.20
2018-10-17T19:39:11.332Z,12.10
2018-10-17T19:41:41.082Z,12.00
2018-10-17T19:44:09.649Z,11.90
2018-10-17T19:46:38.292Z,11.80
2018-10-17T19:49:13.036Z,11.90
2018-10-17T19:51:41.585Z,11.60
2018-10-17T19:54:10.313Z,11.50
2018-10-17T19:56:45.535Z,11.30
2018-10-17T19:59:14.046Z,11.40
2018-10-17T20:01:50.912Z,11.40
2018-10-17T20:04:19.442Z,11.40
2018-10-17T20:06:47.988Z,11.40
2018-10-17T20:09:16.642Z,11.40
2018-10-17T20:11:47.225Z,11.20
2018-10-17T20:14:26.651Z,11.10
2018-10-17T20:16:55.129Z,10.80
2018-10-17T20:19:34.302Z,10.70
2018-10-17T20:22:09.423Z,10.70
2018-10-17T20:24:37.995Z,10.80
2018-10-17T20:27:06.951Z,10.70
2018-10-17T20:29:35.436Z,10.80
2018-10-17T20:32:03.976Z,10.90
2018-10-17T20:34:44.450Z,11.00
2018-10-17T20:37:12.976Z,11.10
2018-10-17T20:39:41.492Z,11.00
2018-10-17T20:42:10.100Z,10.80
2018-10-17T20:44:48.665Z,10.70
2018-10-17T20:47:17.211Z,10.70
2018-10-17T20:49:45.758Z,10.40
2018-10-17T20:52:14.343Z,10.50
2018-10-17T20:54:42.875Z,10.50
2018-10-17T20:57:11.421Z,10.40
2018-10-17T20:59:39.919Z,10.30
2018-10-17T21:02:08.463Z,10.40
2018-10-17T21:04:37.127Z,10.40
2018-10-17T21:07:05.838Z,10.20
2018-10-17T21:09:34.394Z,10.20
2018-10-17T21:12:03.007Z,10.20
2018-10-17T21:14:31.527Z,10.20
2018-10-17T21:17:00.074Z,10.30
2018-10-17T21:19:32.986Z,10.30
2018-10-17T21:22:01.557Z,10.10
2018-10-17T21:24:30.300Z,10.00
2018-10-17T21:27:09.626Z,9.90
2018-10-17T21:29:38.176Z,9.80
2018-10-17T21:32:06.932Z,9.90
2018-10-17T21:34:35.344Z,9.90
2018-10-17T21:37:08.683Z,9.70
2018-10-17T21:39:37.232Z,9.60
2018-10-17T21:42:05.753Z,9.80
2018-10-17T21:44:34.312Z,9.80
2018-10-17T21:47:02.837Z,9.80
2018-10-17T21:49:33.368Z,10.00
2018-10-17T21:52:01.868Z,9.90
2018-10-17T21:54:30.380Z,9.60
2018-10-17T21:57:04.957Z,9.60
2018-10-17T21:59:33.510Z,9.30
2018-10-17T22:02:02.029Z,9.30
2018-10-17T22:04:30.595Z,9.30
2018-10-17T22:09:57.788Z,9.70
2018-10-17T22:12:26.210Z,9.60
2018-10-17T22:14:54.764Z,9.10
2018-10-17T22:17:30.496Z,9.00
2018-10-17T22:19:59.009Z,9.10
2018-10-17T22:22:27.875Z,9.20
2018-10-17T22:24:56.973Z,9.20
2018-10-17T22:27:25.558Z,9.20
2018-10-17T22:29:55.288Z,9.30
2018-10-17T22:32:23.705Z,9.30
2018-10-17T22:34:52.254Z,9.30
2018-10-17T22:37:20.825Z,9.30
2018-10-17T22:39:49.345Z,9.10
2018-10-17T22:42:23.550Z,9.00
2018-10-17T22:44:52.120Z,9.00
2018-10-17T22:47:20.675Z,9.10
2018-10-17T22:49:49.197Z,9.10
2018-10-17T22:52:29.458Z,8.80
2018-10-17T22:54:57.980Z,8.90
2018-10-17T22:57:26.513Z,8.90
2018-10-17T22:59:55.032Z,8.90
2018-10-17T23:02:23.541Z,8.90
2018-10-17T23:04:52.056Z,8.70
2018-10-17T23:07:20.560Z,8.60
2018-10-17T23:09:49.105Z,8.50
2018-10-17T23:12:17.640Z,8.50
2018-10-17T23:14:46.157Z,8.60
2018-10-17T23:17:14.693Z,8.70
2018-10-17T23:19:43.201Z,8.70
2018-10-17T23:22:11.745Z,8.70
2018-10-17T23:24:40.257Z,8.80
2018-10-17T23:27:08.797Z,8.80
2018-10-17T23:29:37.302Z,8.70
2018-10-17T23:32:06.083Z,8.70
2018-10-17T23:34:34.630Z,8.80
2018-10-17T23:37:03.193Z,8.90
2018-10-17T23:39:31.711Z,8.70
2018-10-17T23:42:00.312Z,8.60
2018-10-17T23:44:28.790Z,8.40
2018-10-17T23:47:05.446Z,8.40
2018-10-17T23:49:34.137Z,8.40
2018-10-17T23:52:02.700Z,8.50
2018-10-17T23:54:31.335Z,8.50
2018-10-17T23:56:59.911Z,8.30
2018-10-17T23:59:28.505Z,8.40
